Time;durP1;ratioP1;P1;durP2;ratioP2;P2;SDS_P1;SDS_P2;PMS_P1;PMS_P2;Temp;Humidity;BMP_temperature;BMP_pressure;BME280_temperature;BME280_humidity;BME280_pressure;Samples;Min_cycle;Max_cycle;Signal;HPM_P1;HPM_P2
2021/06/06 00:01:37;;;;;;;15.10;6.15;;;18.90;99.90;;;;;;5051148;28;20048;-46
2021/06/06 00:04:46;;;;;;;15.32;5.40;;;18.90;99.90;;;;;;5051985;28;20518;-48
2021/06/06 00:07:50;;;;;;;18.63;5.75;;;18.90;99.90;;;;;;5052238;28;20052;-46
2021/06/06 00:10:59;;;;;;;19.23;6.82;;;18.90;99.90;;;;;;5051785;28;20522;-45
2021/06/06 00:14:07;;;;;;;21.65;7.22;;;18.70;99.90;;;;;;5051534;28;20044;-47
2021/06/06 00:17:11;;;;;;;22.48;8.90;;;18.30;99.90;;;;;;5051235;28;20036;-46
2021/06/06 00:20:16;;;;;;;17.33;9.20;;;18.00;99.90;;;;;;5051684;28;20047;-48
2021/06/06 00:23:21;;;;;;;16.95;10.27;;;18.00;99.90;;;;;;5051775;28;20044;-46
2021/06/06 00:26:27;;;;;;;19.63;10.95;;;18.00;99.90;;;;;;5051689;28;20052;-45
2021/06/06 00:29:37;;;;;;;29.15;12.02;;;18.10;99.90;;;;;;5051623;28;20106;-46
2021/06/06 00:32:41;;;;;;;21.30;11.82;;;18.10;99.90;;;;;;5051511;28;20040;-48
2021/06/06 00:35:46;;;;;;;22.45;11.30;;;18.20;99.90;;;;;;5043171;28;20044;-45
2021/06/06 00:38:51;;;;;;;17.55;10.00;;;18.10;99.90;;;;;;5049903;28;20130;-46
2021/06/06 00:41:56;;;;;;;24.27;12.10;;;18.10;99.90;;;;;;5019283;28;20040;-48
2021/06/06 00:45:01;;;;;;;17.52;11.77;;;18.10;99.90;;;;;;5032369;28;20420;-49
2021/06/06 00:48:07;;;;;;;23.67;14.07;;;18.10;99.90;;;;;;5028053;28;20056;-51
2021/06/06 00:51:41;;;;;;;26.90;13.90;;;18.00;99.90;;;;;;5039543;28;20063;-50
2021/06/06 00:54:48;;;;;;;;;;;18.10;99.90;;;;;;5050730;28;20048;-50
2021/06/06 00:57:55;;;;;;;35.22;21.45;;;18.00;99.90;;;;;;5038916;28;19920;-49
2021/06/06 01:01:03;;;;;;;40.25;21.83;;;18.00;99.90;;;;;;5051351;28;20048;-51
2021/06/06 01:04:08;;;;;;;31.48;19.63;;;18.00;99.90;;;;;;5038536;28;20048;-52
2021/06/06 01:07:12;;;;;;;32.95;20.38;;;17.90;99.90;;;;;;5030587;28;20060;-51
2021/06/06 01:10:21;;;;;;;29.13;19.50;;;17.90;99.90;;;;;;5029974;28;20052;-49
2021/06/06 01:13:37;;;;;;;37.92;21.67;;;17.90;99.90;;;;;;5017901;28;20044;-49
2021/06/06 01:17:01;;;;;;;41.83;23.08;;;17.90;99.90;;;;;;5030945;28;20515;-46
2021/06/06 01:20:10;;;;;;;73.80;25.00;;;18.00;99.90;;;;;;5030472;28;20041;-46
2021/06/06 01:23:48;;;;;;;304.65;29.02;;;18.10;99.90;;;;;;5030592;28;20045;-49
2021/06/06 01:27:01;;;;;;;83.03;22.00;;;18.10;99.90;;;;;;5050640;28;20044;-48
2021/06/06 01:30:20;;;;;;;265.38;30.00;;;18.00;99.90;;;;;;5049096;28;20044;-48
2021/06/06 01:33:43;;;;;;;69.18;21.05;;;18.00;99.90;;;;;;5048972;28;20044;-50
2021/06/06 01:37:07;;;;;;;99.63;21.23;;;18.10;99.90;;;;;;5038332;28;20040;-51
2021/06/06 01:40:20;;;;;;;105.80;22.65;;;18.10;99.90;;;;;;5050342;28;20048;-48
2021/06/06 01:43:31;;;;;;;37.40;19.60;;;18.20;99.90;;;;;;5049811;28;20147;-48
2021/06/06 01:46:41;;;;;;;264.50;29.38;;;18.10;99.90;;;;;;5050236;28;20068;-50
2021/06/06 01:49:54;;;;;;;28.02;18.42;;;18.10;99.90;;;;;;5050118;28;20052;-46
2021/06/06 01:53:03;;;;;;;94.43;21.85;;;18.10;99.90;;;;;;5050150;28;20052;-46
2021/06/06 01:56:09;;;;;;;36.15;16.85;;;18.20;99.90;;;;;;5049832;28;20064;-50
2021/06/06 01:59:36;;;;;;;279.75;25.17;;;18.10;99.90;;;;;;5050002;28;20044;-48
2021/06/06 02:02:42;;;;;;;147.18;22.52;;;18.10;99.90;;;;;;5049508;28;20514;-48
2021/06/06 02:05:49;;;;;;;40.05;18.75;;;18.00;99.90;;;;;;5048892;28;20060;-48
2021/06/06 02:08:54;;;;;;;205.15;24.27;;;18.10;99.90;;;;;;5048854;28;20044;-48
2021/06/06 02:12:06;;;;;;;74.65;20.02;;;18.10;99.90;;;;;;5032239;28;20136;-47
2021/06/06 02:15:27;;;;;;;29.75;18.55;;;18.10;99.90;;;;;;5028584;28;20066;-46
2021/06/06 02:18:45;;;;;;;51.15;19.63;;;18.20;99.90;;;;;;5029377;28;20514;-46
2021/06/06 02:21:59;;;;;;;38.53;19.35;;;18.20;99.90;;;;;;5036818;28;20382;-50
2021/06/06 02:25:06;;;;;;;46.08;19.15;;;18.30;99.90;;;;;;5048426;28;20048;-49
2021/06/06 02:28:16;;;;;;;40.20;18.33;;;18.30;99.90;;;;;;5037289;28;20055;-46
2021/06/06 02:31:39;;;;;;;130.20;19.52;;;18.30;99.90;;;;;;5047994;28;20044;-47
2021/06/06 02:34:57;;;;;;;26.65;15.13;;;18.30;99.90;;;;;;5036864;28;20052;-48
2021/06/06 02:38:28;;;;;;;57.67;18.02;;;18.30;99.90;;;;;;5048662;28;20052;-47
2021/06/06 02:41:50;;;;;;;29.23;15.85;;;18.20;99.90;;;;;;5027829;28;20044;-49
2021/06/06 02:45:01;;;;;;;82.78;17.88;;;18.30;99.90;;;;;;5036399;28;20071;-48
2021/06/06 02:48:14;;;;;;;132.65;20.30;;;18.30;99.90;;;;;;5034876;28;20526;-47
2021/06/06 02:51:23;;;;;;;43.47;14.15;;;18.10;99.90;;;;;;5047715;28;20044;-47
2021/06/06 02:54:40;;;;;;;28.27;15.20;;;18.10;99.90;;;;;;5036402;28;20514;-47
2021/06/06 02:58:00;;;;;;;108.80;17.00;;;18.10;99.90;;;;;;5051990;28;20532;-48
2021/06/06 03:01:22;;;;;;;70.10;16.33;;;18.10;99.90;;;;;;5040557;28;20076;-49
2021/06/06 03:04:30;;;;;;;77.38;18.17;;;18.10;99.90;;;;;;5051848;28;20403;-47
2021/06/06 03:07:46;;;;;;;58.10;18.42;;;18.10;99.90;;;;;;5040860;28;20071;-47
2021/06/06 03:10:53;;;;;;;68.75;16.08;;;18.00;99.90;;;;;;5040897;28;20064;-46
2021/06/06 03:14:03;;;;;;;63.25;16.60;;;18.10;99.90;;;;;;5040100;28;20087;-47
2021/06/06 03:17:14;;;;;;;64.95;18.80;;;18.10;99.90;;;;;;5041404;28;20048;-50
2021/06/06 03:20:24;;;;;;;74.45;17.10;;;18.10;99.90;;;;;;5052472;28;20064;-50
2021/06/06 03:23:33;;;;;;;27.33;15.68;;;18.00;99.90;;;;;;5044627;28;20044;-46
2021/06/06 03:26:40;;;;;;;31.10;16.20;;;18.00;99.90;;;;;;5041091;28;20048;-49
2021/06/06 03:30:09;;;;;;;27.13;15.30;;;17.90;99.90;;;;;;5053249;28;20048;-47
2021/06/06 03:33:19;;;;;;;22.08;15.65;;;17.90;99.90;;;;;;5040875;28;20055;-46
2021/06/06 03:36:40;;;;;;;27.67;15.43;;;17.90;99.90;;;;;;5051522;28;20040;-46
2021/06/06 03:39:48;;;;;;;23.70;14.27;;;17.80;99.90;;;;;;5044332;28;20450;-46
2021/06/06 03:42:59;;;;;;;29.80;15.35;;;17.70;99.90;;;;;;5032012;28;20041;-46
2021/06/06 03:46:05;;;;;;;20.65;14.43;;;17.70;99.90;;;;;;5020050;28;20076;-47
2021/06/06 03:49:10;;;;;;;22.65;13.88;;;17.60;99.90;;;;;;5050602;28;20048;-48
2021/06/06 03:52:15;;;;;;;25.98;15.45;;;17.60;99.90;;;;;;5031509;28;20063;-46
2021/06/06 03:55:21;;;;;;;26.63;16.65;;;17.50;99.90;;;;;;5050262;28;20048;-46
2021/06/06 03:58:28;;;;;;;27.45;15.45;;;17.60;99.90;;;;;;5040285;28;20040;-46
2021/06/06 04:01:32;;;;;;;22.15;16.20;;;17.70;99.90;;;;;;5051619;28;20532;-48
2021/06/06 04:04:37;;;;;;;19.27;13.93;;;17.70;99.90;;;;;;5050919;28;20107;-46
2021/06/06 04:07:41;;;;;;;21.67;15.15;;;17.70;99.90;;;;;;5051171;28;20056;-46
2021/06/06 04:10:48;;;;;;;28.80;16.65;;;17.70;99.90;;;;;;5051064;28;20052;-49
2021/06/06 04:13:53;;;;;;;26.55;14.18;;;17.70;99.90;;;;;;5039748;28;20064;-48
2021/06/06 04:17:04;;;;;;;21.98;13.80;;;17.60;99.90;;;;;;5051896;28;20040;-45
2021/06/06 04:20:13;;;;;;;23.30;14.43;;;17.60;99.90;;;;;;5050897;28;20860;-46
2021/06/06 04:23:20;;;;;;;30.23;15.38;;;17.50;99.90;;;;;;5045261;28;20047;-46
2021/06/06 04:26:26;;;;;;;21.38;14.13;;;17.60;99.90;;;;;;5051242;28;20044;-46
2021/06/06 04:29:32;;;;;;;27.77;15.15;;;17.60;99.90;;;;;;5039349;28;20534;-46
2021/06/06 04:32:42;;;;;;;23.48;14.25;;;17.70;99.90;;;;;;5051383;28;20415;-45
2021/06/06 04:35:48;;;;;;;23.50;13.70;;;17.80;99.90;;;;;;5050141;28;20411;-46
2021/06/06 04:38:53;;;;;;;21.58;12.02;;;18.00;99.90;;;;;;5039770;28;20052;-47
2021/06/06 04:42:13;;;;;;;27.05;13.20;;;18.20;99.90;;;;;;5038981;28;20039;-46
2021/06/06 04:45:19;;;;;;;22.45;11.85;;;18.30;99.90;;;;;;5039359;28;20047;-46
2021/06/06 04:48:29;;;;;;;14.98;10.48;;;18.50;99.90;;;;;;5051762;28;20399;-48
2021/06/06 04:51:34;;;;;;;17.40;8.85;;;18.70;99.90;;;;;;5038898;28;20047;-47
2021/06/06 04:54:54;;;;;;;18.58;10.32;;;18.90;99.90;;;;;;5051014;28;20047;-46
2021/06/06 04:58:03;;;;;;;16.08;9.40;;;19.10;99.90;;;;;;5050401;28;20044;-46
2021/06/06 05:01:13;;;;;;;14.35;8.25;;;19.20;99.90;;;;;;5038891;28;20043;-46
2021/06/06 05:04:18;;;;;;;16.40;8.88;;;19.40;99.90;;;;;;5038661;28;20507;-49
2021/06/06 05:07:23;;;;;;;18.70;9.50;;;19.80;99.90;;;;;;5038772;28;20040;-46
2021/06/06 05:10:33;;;;;;;12.57;7.78;;;21.50;99.90;;;;;;5038758;28;20486;-47
2021/06/06 05:13:39;;;;;;;12.18;7.20;;;24.60;99.90;;;;;;5050825;28;20047;-47
2021/06/06 05:16:43;;;;;;;13.75;6.70;;;25.70;99.90;;;;;;5038040;28;20044;-46
2021/06/06 05:19:48;;;;;;;13.70;6.78;;;26.30;99.90;;;;;;5050269;28;20055;-46
2021/06/06 05:22:55;;;;;;;11.23;6.53;;;26.70;99.90;;;;;;5038465;28;20048;-46
2021/06/06 05:26:00;;;;;;;10.55;6.32;;;27.10;99.90;;;;;;5050284;28;20048;-48
2021/06/06 05:29:05;;;;;;;12.80;6.47;;;27.10;99.90;;;;;;5050485;28;20067;-52
2021/06/06 05:32:10;;;;;;;12.50;7.15;;;27.50;99.90;;;;;;5050611;28;20040;-48
2021/06/06 05:35:14;;;;;;;13.65;6.43;;;26.90;99.90;;;;;;5049826;28;20052;-47
2021/06/06 05:38:22;;;;;;;10.57;6.53;;;26.20;99.90;;;;;;5049389;28;20154;-48
2021/06/06 05:41:26;;;;;;;15.82;6.68;;;26.20;99.90;;;;;;5045552;28;20044;-47
2021/06/06 05:44:31;;;;;;;12.90;7.05;;;25.40;99.90;;;;;;5047052;28;20048;-46
2021/06/06 05:47:35;;;;;;;13.65;7.15;;;25.40;99.90;;;;;;5043051;28;20048;-50
2021/06/06 05:50:42;;;;;;;9.57;4.93;;;26.50;99.90;;;;;;5029787;28;20044;-49
2021/06/06 05:54:10;;;;;;;10.20;4.43;;;28.30;99.90;;;;;;5029365;28;20037;-49
2021/06/06 05:57:14;;;;;;;9.27;5.07;;;29.30;99.90;;;;;;5045315;28;20052;-47
2021/06/06 06:00:31;;;;;;;8.38;4.60;;;30.10;99.90;;;;;;5043993;28;20047;-47
2021/06/06 06:03:36;;;;;;;12.13;4.78;;;30.80;99.90;;;;;;5050415;28;20036;-49
2021/06/06 06:06:41;;;;;;;11.15;4.30;;;31.10;99.90;;;;;;5049676;28;20526;-48
2021/06/06 06:09:45;;;;;;;8.80;4.47;;;31.50;99.90;;;;;;5049865;28;20064;-49
2021/06/06 06:12:49;;;;;;;8.73;4.00;;;31.60;99.70;;;;;;5044438;28;20044;-49
2021/06/06 06:15:54;;;;;;;13.40;4.95;;;31.70;99.30;;;;;;5047958;28;20039;-48
2021/06/06 06:18:59;;;;;;;13.23;4.60;;;30.80;98.10;;;;;;5049321;28;20403;-46
2021/06/06 06:22:03;;;;;;;10.50;4.55;;;27.60;99.90;;;;;;5048573;28;20047;-46
2021/06/06 06:25:14;;;;;;;11.07;4.90;;;27.60;99.90;;;;;;5045989;28;20044;-48
2021/06/06 06:28:19;;;;;;;10.52;4.57;;;27.40;99.90;;;;;;5049548;28;20052;-47
2021/06/06 06:31:46;;;;;;;9.48;4.40;;;26.60;99.90;;;;;;5029502;28;20039;-46
2021/06/06 06:35:13;;;;;;;12.40;4.07;;;28.00;99.90;;;;;;5053269;28;20052;-46
2021/06/06 06:38:17;;;;;;;8.18;5.00;;;28.90;99.90;;;;;;5047460;28;20040;-45
2021/06/06 06:41:25;;;;;;;10.80;5.85;;;25.80;99.90;;;;;;5046311;28;20514;-49
2021/06/06 06:44:30;;;;;;;10.48;5.88;;;23.90;99.90;;;;;;5047969;28;20052;-46
2021/06/06 06:47:44;;;;;;;17.65;5.55;;;23.30;99.90;;;;;;5024073;28;20052;-48
2021/06/06 06:50:49;;;;;;;8.30;4.50;;;23.70;99.90;;;;;;5034722;28;20396;-51
2021/06/06 06:53:54;;;;;;;10.57;4.78;;;25.50;99.90;;;;;;5032776;28;20060;-51
2021/06/06 06:56:59;;;;;;;11.25;4.85;;;27.40;99.90;;;;;;5049224;28;20051;-46
2021/06/06 07:00:10;;;;;;;16.25;5.80;;;26.90;99.90;;;;;;5047625;28;20051;-45
2021/06/06 07:03:21;;;;;;;13.17;5.80;;;25.90;99.90;;;;;;5049181;28;20526;-50
2021/06/06 07:06:26;;;;;;;11.35;4.43;;;24.50;99.90;;;;;;5049014;28;20290;-48
2021/06/06 07:09:31;;;;;;;10.13;4.60;;;27.00;99.90;;;;;;5046188;28;20044;-53
2021/06/06 07:12:37;;;;;;;16.35;5.53;;;27.70;99.90;;;;;;5049278;28;20052;-46
2021/06/06 07:15:43;;;;;;;11.30;4.95;;;25.30;99.90;;;;;;5048504;28;20052;-52
2021/06/06 07:18:49;;;;;;;11.15;4.90;;;25.90;99.90;;;;;;5049200;28;20060;-49
2021/06/06 07:21:53;;;;;;;9.80;4.80;;;25.60;99.90;;;;;;5049028;28;20052;-52
2021/06/06 07:24:58;;;;;;;10.98;4.97;;;26.80;99.90;;;;;;5048917;28;20521;-51
2021/06/06 07:28:04;;;;;;;11.05;4.50;;;27.20;99.90;;;;;;5049031;28;20048;-48
2021/06/06 07:31:10;;;;;;;13.15;5.72;;;25.70;99.90;;;;;;5048334;28;20040;-48
2021/06/06 07:34:16;;;;;;;9.85;5.10;;;26.50;99.90;;;;;;5047791;28;20052;-46
2021/06/06 07:37:21;;;;;;;13.07;5.22;;;26.20;99.90;;;;;;5048686;28;20055;-47
2021/06/06 07:40:29;;;;;;;10.98;5.80;;;27.50;99.90;;;;;;5048561;28;20462;-47
2021/06/06 07:43:34;;;;;;;8.23;5.40;;;27.00;99.90;;;;;;5037547;28;20055;-47
2021/06/06 07:46:39;;;;;;;10.43;4.78;;;28.10;99.90;;;;;;5051593;28;20068;-52
2021/06/06 07:49:44;;;;;;;13.43;4.97;;;29.90;99.90;;;;;;5051495;28;20048;-49
2021/06/06 07:52:50;;;;;;;15.80;5.60;;;29.90;99.90;;;;;;5052169;28;20044;-47
2021/06/06 07:55:55;;;;;;;11.13;5.43;;;30.50;99.90;;;;;;5050398;28;20047;-52
2021/06/06 07:59:00;;;;;;;11.00;4.70;;;30.90;99.20;;;;;;5051762;28;20087;-52
2021/06/06 08:02:04;;;;;;;10.35;4.72;;;31.10;98.30;;;;;;5048806;28;20040;-52
2021/06/06 08:05:10;;;;;;;11.90;5.05;;;29.80;99.60;;;;;;5040022;28;20542;-48
2021/06/06 08:08:15;;;;;;;8.82;4.13;;;27.80;99.90;;;;;;5051682;28;20415;-52
2021/06/06 08:11:20;;;;;;;10.05;4.07;;;27.50;99.90;;;;;;5051719;28;20052;-52
2021/06/06 08:14:24;;;;;;;10.65;3.78;;;29.40;99.90;;;;;;5052187;28;20051;-52
2021/06/06 08:17:28;;;;;;;7.95;3.70;;;27.60;99.90;;;;;;5051523;28;20111;-50
2021/06/06 08:20:39;;;;;;;9.20;3.80;;;28.20;99.90;;;;;;5050111;28;20044;-50
2021/06/06 08:23:44;;;;;;;12.82;4.47;;;29.20;99.90;;;;;;5042448;28;20047;-52
2021/06/06 08:26:49;;;;;;;9.75;4.25;;;27.90;99.90;;;;;;5051867;28;20056;-50
2021/06/06 08:29:54;;;;;;;8.50;3.72;;;28.30;99.90;;;;;;5051794;28;20040;-51
2021/06/06 08:32:59;;;;;;;10.63;4.13;;;29.20;99.90;;;;;;5051542;28;20048;-48
2021/06/06 08:36:10;;;;;;;9.23;3.65;;;29.00;99.90;;;;;;5050329;28;20043;-48
2021/06/06 08:39:29;;;;;;;7.78;3.65;;;29.30;99.90;;;;;;5042224;28;20040;-50
2021/06/06 08:42:43;;;;;;;11.60;3.85;;;29.00;98.70;;;;;;5050057;28;20040;-50
2021/06/06 08:45:56;;;;;;;7.93;3.30;;;28.40;98.10;;;;;;5047527;28;20051;-48
2021/06/06 08:49:02;;;;;;;9.43;3.88;;;30.60;97.00;;;;;;5046009;28;20052;-52
2021/06/06 08:52:25;;;;;;;9.73;3.22;;;29.30;97.30;;;;;;5049768;28;20056;-48
2021/06/06 08:55:48;;;;;;;9.40;2.80;;;28.40;98.50;;;;;;5050910;28;20518;-46
2021/06/06 08:59:09;;;;;;;9.55;4.13;;;29.20;98.50;;;;;;5038118;28;20036;-47
2021/06/06 09:02:29;;;;;;;9.50;2.50;;;29.30;95.00;;;;;;5050503;28;20040;-49
2021/06/06 09:05:40;;;;;;;6.80;2.03;;;31.40;92.70;;;;;;5050013;28;20063;-50
2021/06/06 09:08:45;;;;;;;11.45;3.22;;;32.70;91.80;;;;;;5049637;28;20047;-52
2021/06/06 09:11:49;;;;;;;10.20;2.55;;;29.30;92.00;;;;;;5035842;28;20043;-50
2021/06/06 09:14:55;;;;;;;9.90;2.90;;;31.70;91.50;;;;;;5049307;28;20063;-52
2021/06/06 09:18:15;;;;;;;6.72;2.05;;;30.00;91.80;;;;;;5049503;28;20053;-52
2021/06/06 09:21:22;;;;;;;10.23;3.92;;;31.20;90.60;;;;;;5045725;28;20044;-51
2021/06/06 09:24:48;;;;;;;11.75;4.43;;;33.00;88.80;;;;;;5050014;28;20044;-46
2021/06/06 09:28:03;;;;;;;6.05;1.98;;;32.90;85.30;;;;;;5048516;28;20041;-48
2021/06/06 09:31:17;;;;;;;7.20;2.05;;;32.40;84.00;;;;;;5048994;28;20040;-52
2021/06/06 09:34:25;;;;;;;5.55;2.63;;;31.00;82.20;;;;;;5048922;28;20040;-49
2021/06/06 09:37:29;;;;;;;4.28;1.33;;;30.70;78.80;;;;;;5049034;28;20518;-51
2021/06/06 09:40:38;;;;;;;5.68;1.77;;;31.60;79.80;;;;;;5049009;28;20044;-49
2021/06/06 09:43:55;;;;;;;6.38;1.73;;;34.80;75.70;;;;;;5030297;28;20404;-52
2021/06/06 09:47:12;;;;;;;5.07;1.13;;;33.10;73.00;;;;;;5049461;28;20052;-48
2021/06/06 09:50:20;;;;;;;7.68;1.65;;;34.50;69.70;;;;;;5034118;28;20052;-51
2021/06/06 09:53:28;;;;;;;6.03;1.30;;;33.90;69.50;;;;;;5049617;28;20407;-52
2021/06/06 09:56:32;;;;;;;7.97;3.63;;;33.80;70.30;;;;;;5048710;28;20048;-49
2021/06/06 09:59:37;;;;;;;6.30;1.55;;;33.60;72.50;;;;;;5045345;28;20047;-49
2021/06/06 10:02:49;;;;;;;5.47;1.50;;;32.90;69.30;;;;;;5048704;28;20514;-49
2021/06/06 10:06:08;;;;;;;6.95;1.65;;;34.70;71.70;;;;;;5047825;28;20048;-49
2021/06/06 10:09:19;;;;;;;4.93;1.65;;;36.30;68.40;;;;;;5048843;28;20048;-52
2021/06/06 10:12:39;;;;;;;6.70;1.48;;;34.40;69.10;;;;;;5047938;28;20056;-52
2021/06/06 10:15:46;;;;;;;;;;;33.90;71.50;;;;;;5048525;28;20039;-48
2021/06/06 10:18:58;;;;;;;8.27;3.13;;;34.30;68.80;;;;;;5048528;28;20082;-48
2021/06/06 10:22:09;;;;;;;3.05;1.50;;;35.00;67.90;;;;;;5048890;28;20040;-48
2021/06/06 10:25:22;;;;;;;7.85;1.90;;;37.30;65.30;;;;;;5048079;28;20044;-53
2021/06/06 10:28:57;;;;;;;6.60;1.83;;;34.80;66.90;;;;;;5049039;28;20044;-47
2021/06/06 10:32:30;;;;;;;3.92;1.27;;;36.20;68.50;;;;;;5049076;28;20044;-53
2021/06/06 10:35:34;;;;;;;5.35;1.30;;;35.50;64.70;;;;;;5048722;28;20040;-47
2021/06/06 10:38:40;;;;;;;6.60;1.88;;;33.80;65.30;;;;;;5049519;28;20048;-49
2021/06/06 10:42:08;;;;;;;6.60;1.50;;;31.60;69.30;;;;;;5049137;28;20044;-48
2021/06/06 10:45:21;;;;;;;6.97;2.22;;;30.50;68.80;;;;;;5048746;28;20040;-49
2021/06/06 10:48:34;;;;;;;6.53;1.88;;;31.90;70.60;;;;;;5049192;28;20399;-51
2021/06/06 10:51:57;;;;;;;7.22;2.40;;;33.20;71.60;;;;;;5048068;28;20036;-51
2021/06/06 10:55:13;;;;;;;15.30;7.25;;;31.70;74.20;;;;;;5045893;28;20040;-52
2021/06/06 10:58:27;;;;;;;6.30;2.25;;;31.50;74.10;;;;;;5048523;28;20040;-50
2021/06/06 11:01:44;;;;;;;10.25;1.83;;;30.90;76.40;;;;;;5047666;28;20403;-50
2021/06/06 11:04:53;;;;;;;7.25;1.70;;;31.80;74.70;;;;;;5048328;28;20396;-51
2021/06/06 11:07:57;;;;;;;9.88;2.30;;;32.30;74.40;;;;;;5047899;28;20036;-52
2021/06/06 11:11:11;;;;;;;8.98;1.92;;;32.10;75.30;;;;;;5047230;28;20514;-51
2021/06/06 11:14:18;;;;;;;4.78;2.10;;;33.20;73.30;;;;;;5047712;28;20040;-48
2021/06/06 11:17:36;;;;;;;8.27;2.17;;;32.30;72.50;;;;;;5050998;28;20056;-52
2021/06/06 11:21:04;;;;;;;3.45;1.73;;;33.00;74.00;;;;;;5051034;28;20039;-51
2021/06/06 11:24:33;;;;;;;5.95;1.88;;;32.90;73.50;;;;;;5049683;28;20040;-47
2021/06/06 11:27:54;;;;;;;9.30;1.73;;;33.30;73.40;;;;;;5037430;28;20044;-50
2021/06/06 11:30:59;;;;;;;4.65;1.55;;;33.40;73.10;;;;;;5048903;28;20040;-52
2021/06/06 11:34:21;;;;;;;7.43;2.03;;;35.00;70.60;;;;;;5052958;28;20044;-48
2021/06/06 11:37:27;;;;;;;;;;;34.80;70.30;;;;;;5044265;28;20047;-48
2021/06/06 11:40:40;;;;;;;6.28;2.03;;;33.20;71.10;;;;;;4998002;28;19923;-46
2021/06/06 11:43:56;;;;;;;10.10;2.08;;;30.70;76.10;;;;;;5003508;28;20044;-50
2021/06/06 11:47:24;;;;;;;9.13;2.65;;;30.60;77.30;;;;;;5020460;28;20061;-46
2021/06/06 11:50:50;;;;;;;6.20;1.65;;;31.00;78.60;;;;;;5019753;28;20057;-51
2021/06/06 11:53:58;;;;;;;8.85;2.42;;;29.60;78.40;;;;;;5025110;28;20052;-48
2021/06/06 11:57:16;;;;;;;7.47;2.08;;;29.20;83.50;;;;;;5022100;28;20052;-46
2021/06/06 12:00:30;;;;;;;9.38;2.55;;;28.40;82.90;;;;;;5028553;28;20039;-47
2021/06/06 12:03:41;;;;;;;10.23;2.00;;;28.20;81.10;;;;;;5031871;28;20037;-47
2021/06/06 12:06:46;;;;;;;4.57;1.80;;;28.10;79.90;;;;;;5036583;28;20052;-47
2021/06/06 12:09:52;;;;;;;9.38;2.08;;;28.70;83.40;;;;;;5029249;28;20040;-46
2021/06/06 12:13:02;;;;;;;11.43;2.28;;;29.90;79.90;;;;;;5018694;28;20966;-46
2021/06/06 12:16:12;;;;;;;7.88;1.92;;;30.20;80.10;;;;;;5024637;28;20072;-52
2021/06/06 12:19:19;;;;;;;6.80;2.55;;;31.60;77.10;;;;;;5026418;28;20052;-49
2021/06/06 12:22:27;;;;;;;5.90;2.30;;;30.90;79.00;;;;;;5025330;28;20557;-48
2021/06/06 12:25:36;;;;;;;7.32;4.10;;;30.20;78.70;;;;;;5022195;28;20056;-48
2021/06/06 12:28:44;;;;;;;7.07;2.05;;;30.30;79.30;;;;;;5019280;28;20060;-48
2021/06/06 12:31:49;;;;;;;9.13;4.38;;;30.20;78.90;;;;;;5034427;28;20043;-52
2021/06/06 12:34:57;;;;;;;8.70;2.88;;;30.40;79.00;;;;;;5029279;28;20084;-51
2021/06/06 12:38:03;;;;;;;9.55;2.47;;;28.50;84.10;;;;;;5026787;28;20052;-47
2021/06/06 12:41:10;;;;;;;15.43;2.70;;;29.40;81.60;;;;;;5029471;28;20044;-47
2021/06/06 12:44:17;;;;;;;10.38;2.28;;;28.60;84.50;;;;;;5030242;28;20047;-45
2021/06/06 12:47:34;;;;;;;5.65;2.08;;;29.40;80.50;;;;;;5015897;28;20048;-53
2021/06/06 12:50:40;;;;;;;7.30;2.13;;;30.50;80.00;;;;;;5018481;28;20048;-47
2021/06/06 12:53:46;;;;;;;6.22;2.40;;;31.60;79.30;;;;;;5027751;28;20056;-48
2021/06/06 12:56:52;;;;;;;7.90;2.65;;;32.50;77.40;;;;;;5035878;28;20048;-50
2021/06/06 13:00:19;;;;;;;5.65;1.83;;;33.70;77.60;;;;;;5047611;28;20048;-49
2021/06/06 13:03:30;;;;;;;6.53;2.13;;;32.70;76.10;;;;;;5046907;28;20044;-49
2021/06/06 13:06:41;;;;;;;9.77;2.22;;;31.10;77.10;;;;;;5047701;28;20059;-51
2021/06/06 13:09:49;;;;;;;8.20;2.17;;;31.80;77.90;;;;;;5044496;28;20041;-48
2021/06/06 13:12:53;;;;;;;11.32;2.42;;;30.40;77.10;;;;;;5047581;28;20048;-48
2021/06/06 13:16:11;;;;;;;7.25;2.28;;;29.80;79.40;;;;;;5048238;28;20530;-50
2021/06/06 13:19:15;;;;;;;14.68;6.25;;;28.90;80.40;;;;;;5048802;28;20039;-49
2021/06/06 13:22:31;;;;;;;27.40;10.52;;;28.10;84.10;;;;;;5046424;28;20040;-47
2021/06/06 13:25:38;;;;;;;6.72;2.45;;;27.70;84.20;;;;;;5036474;28;20036;-45
2021/06/06 13:29:07;;;;;;;38.28;23.75;;;27.00;84.50;;;;;;5048056;28;20048;-50
2021/06/06 13:32:20;;;;;;;31.25;18.95;;;27.90;84.50;;;;;;5044695;28;20049;-51
2021/06/06 13:35:25;;;;;;;9.52;2.53;;;27.60;83.00;;;;;;5047377;28;20403;-51
2021/06/06 13:38:33;;;;;;;5.70;2.05;;;27.90;83.40;;;;;;5048568;28;20056;-49
2021/06/06 13:41:38;;;;;;;13.10;3.50;;;28.50;85.10;;;;;;5047807;28;20056;-50
2021/06/06 13:44:43;;;;;;;14.43;3.88;;;28.70;84.30;;;;;;5043894;28;20044;-49
2021/06/06 13:47:49;;;;;;;8.32;3.53;;;28.30;84.80;;;;;;5047008;28;20545;-48
2021/06/06 13:50:54;;;;;;;47.78;34.25;;;28.00;84.10;;;;;;5047963;28;20054;-51
2021/06/06 13:53:58;;;;;;;11.43;3.60;;;27.40;86.10;;;;;;5047786;28;20052;-48
2021/06/06 13:57:06;;;;;;;10.07;3.60;;;27.30;86.00;;;;;;5047607;28;20040;-50
2021/06/06 14:00:15;;;;;;;9.68;4.78;;;27.30;85.90;;;;;;5046045;28;20064;-52
2021/06/06 14:03:27;;;;;;;8.20;2.60;;;27.40;86.60;;;;;;5046959;28;20052;-51
2021/06/06 14:06:32;;;;;;;19.75;7.05;;;27.60;86.30;;;;;;5048715;28;20047;-49
2021/06/06 14:09:37;;;;;;;10.05;5.45;;;27.50;87.10;;;;;;5035306;28;20048;-46
2021/06/06 14:12:43;;;;;;;12.07;6.65;;;27.80;85.40;;;;;;5047707;28;20056;-52
2021/06/06 14:15:47;;;;;;;22.63;15.20;;;27.90;85.20;;;;;;5048139;28;20044;-50
2021/06/06 14:18:55;;;;;;;5.80;2.22;;;28.00;85.00;;;;;;5047681;28;20044;-51
2021/06/06 14:22:00;;;;;;;4.57;2.13;;;27.60;84.70;;;;;;5047422;28;20047;-52
2021/06/06 14:25:09;;;;;;;6.80;3.65;;;28.30;85.40;;;;;;5047621;28;20040;-48
2021/06/06 14:28:16;;;;;;;5.72;2.70;;;28.20;84.00;;;;;;5048367;28;20526;-49
2021/06/06 14:31:22;;;;;;;9.93;2.20;;;28.90;83.30;;;;;;5046853;28;20036;-50
2021/06/06 14:34:26;;;;;;;7.32;2.50;;;28.80;83.50;;;;;;5038060;28;20055;-50
2021/06/06 14:37:31;;;;;;;13.85;2.88;;;27.20;87.00;;;;;;5035645;28;20554;-50
2021/06/06 14:40:37;;;;;;;9.27;5.53;;;27.00;86.50;;;;;;5043560;28;20044;-49
2021/06/06 14:43:42;;;;;;;15.45;6.22;;;27.20;87.70;;;;;;5034009;28;20044;-49
2021/06/06 14:46:46;;;;;;;16.45;5.97;;;27.80;87.30;;;;;;5026174;28;20071;-46
2021/06/06 14:49:52;;;;;;;8.98;2.88;;;27.50;83.80;;;;;;5036448;28;20036;-48
2021/06/06 14:53:00;;;;;;;9.80;2.25;;;27.40;84.70;;;;;;5047709;28;20048;-45
2021/06/06 14:56:07;;;;;;;4.70;2.17;;;27.10;83.00;;;;;;5048942;28;20055;-50
2021/06/06 14:59:15;;;;;;;6.05;2.72;;;26.70;84.00;;;;;;5049520;28;20048;-50
2021/06/06 15:02:19;;;;;;;3.92;2.00;;;26.30;84.10;;;;;;5049110;28;20048;-50
2021/06/06 15:05:24;;;;;;;4.68;1.90;;;26.40;84.90;;;;;;5049093;28;20047;-48
2021/06/06 15:08:29;;;;;;;6.28;2.40;;;26.20;84.90;;;;;;5048826;28;20043;-52
2021/06/06 15:11:34;;;;;;;12.25;4.65;;;26.20;85.00;;;;;;5049061;28;20510;-52
2021/06/06 15:14:40;;;;;;;4.72;2.28;;;26.30;86.10;;;;;;5048788;28;20052;-46
2021/06/06 15:17:45;;;;;;;11.40;3.10;;;26.20;84.30;;;;;;5048984;28;20051;-51
2021/06/06 15:20:52;;;;;;;13.52;7.85;;;26.10;84.40;;;;;;5049377;28;20044;-51
2021/06/06 15:23:57;;;;;;;8.50;3.65;;;26.00;84.50;;;;;;5036647;28;20044;-48
2021/06/06 15:27:01;;;;;;;11.52;5.63;;;25.50;84.30;;;;;;5049706;28;20651;-51
2021/06/06 15:30:10;;;;;;;24.92;16.45;;;25.30;85.20;;;;;;5042117;28;20048;-48
2021/06/06 15:33:22;;;;;;;7.30;3.58;;;25.30;85.50;;;;;;5039358;28;20545;-49
2021/06/06 15:36:27;;;;;;;36.92;25.77;;;25.30;86.20;;;;;;5037209;28;20048;-46
2021/06/06 15:39:32;;;;;;;19.83;12.15;;;25.50;86.00;;;;;;5048481;28;20044;-50
2021/06/06 15:42:38;;;;;;;9.80;4.65;;;25.60;85.90;;;;;;5046767;28;20044;-47
2021/06/06 15:45:45;;;;;;;9.43;4.97;;;25.20;87.00;;;;;;5047601;28;20047;-52
2021/06/06 15:48:51;;;;;;;9.65;5.30;;;25.60;86.20;;;;;;5035292;28;20067;-50
2021/06/06 15:51:58;;;;;;;10.73;4.50;;;25.50;85.70;;;;;;5046956;28;20036;-49
2021/06/06 15:55:02;;;;;;;14.38;5.38;;;25.20;87.40;;;;;;5047861;28;20044;-50
2021/06/06 15:58:07;;;;;;;7.60;5.45;;;25.20;87.40;;;;;;5047982;28;20040;-47
2021/06/06 16:01:12;;;;;;;14.02;7.78;;;25.10;88.10;;;;;;5047569;28;20044;-49
2021/06/06 16:04:17;;;;;;;14.68;5.47;;;25.10;88.50;;;;;;5049225;28;20044;-51
2021/06/06 16:07:21;;;;;;;9.45;4.57;;;25.10;88.60;;;;;;5050000;28;20052;-50
2021/06/06 16:10:28;;;;;;;5.03;2.63;;;24.90;89.40;;;;;;5051716;28;20044;-50
2021/06/06 16:13:34;;;;;;;5.85;2.80;;;24.90;90.20;;;;;;5049210;28;20052;-52
2021/06/06 16:16:39;;;;;;;11.43;3.13;;;25.20;90.50;;;;;;5049302;28;20411;-49